createdAt,value
2024-01-04T00:00:57.306Z,99637.91
2024-01-04T00:03:26.295Z,99628.34
2024-01-04T00:05:53.250Z,99625.00
2024-01-04T00:08:20.068Z,99620.00
2024-01-04T00:10:46.869Z,99627.44
2024-01-04T00:13:13.528Z,99623.47
2024-01-04T00:15:40.206Z,99631.75
2024-01-04T00:18:07.072Z,99623.66
2024-01-04T00:20:33.845Z,99614.06
2024-01-04T00:23:00.537Z,99608.03
2024-01-04T00:25:27.274Z,99624.22
2024-01-04T00:27:54.056Z,99617.16
2024-01-04T00:30:21.009Z,99626.28
2024-01-04T00:32:47.770Z,99620.22
2024-01-04T00:35:14.527Z,99629.16
2024-01-04T00:37:41.256Z,99634.75
2024-01-04T00:40:09.751Z,99623.94
2024-01-04T00:42:39.634Z,99622.28
2024-01-04T00:45:07.493Z,99605.25
2024-01-04T00:47:34.348Z,99613.53
2024-01-04T00:50:01.060Z,99603.38
2024-01-04T00:52:27.787Z,99603.38
2024-01-04T00:54:54.442Z,99603.56
2024-01-04T00:57:21.143Z,99609.81
2024-01-04T00:59:47.840Z,99613.53
2024-01-04T01:02:14.484Z,99620.59
2024-01-04T01:04:41.153Z,99605.25
2024-01-04T01:07:07.952Z,99612.50
2024-01-04T01:09:34.692Z,99612.69
2024-01-04T01:12:01.346Z,99615.41
2024-01-04T01:14:28.155Z,99602.09
2024-01-04T01:16:54.934Z,99597.72
2024-01-04T01:19:21.675Z,99594.00
2024-01-04T01:21:48.526Z,99596.03
2024-01-04T01:24:15.281Z,99586.28
2024-01-04T01:26:44.076Z,99586.66
2024-01-04T01:29:12.079Z,99595.09
2024-01-04T01:31:43.008Z,99574.91
2024-01-04T01:34:10.603Z,99581.34
2024-01-04T01:36:41.808Z,99579.22
2024-01-04T01:39:10.041Z,99587.50
2024-01-04T01:41:37.103Z,99587.03
2024-01-04T01:44:03.840Z,99586.56
2024-01-04T01:46:30.819Z,99585.09
2024-01-04T01:48:57.803Z,99589.00
2024-01-04T01:51:24.573Z,99597.28
2024-01-04T01:53:51.517Z,99598.88
2024-01-04T01:56:18.863Z,99602.59
2024-01-04T01:58:48.869Z,99604.81
2024-01-04T02:01:16.108Z,99615.81
2024-01-04T02:03:43.195Z,99622.22
2024-01-04T02:06:10.094Z,99618.88
2024-01-04T02:08:37.129Z,99621.56
2024-01-04T02:11:03.941Z,99614.50
2024-01-04T02:13:30.781Z,99610.41
2024-01-04T02:15:57.442Z,99610.41
2024-01-04T02:18:24.303Z,99609.19
2024-01-04T02:20:51.096Z,99610.69
2024-01-04T02:23:20.349Z,99611.34
2024-01-04T02:25:47.010Z,99611.78
2024-01-04T02:28:13.733Z,99613.09
2024-01-04T02:30:40.394Z,99616.44
2024-01-04T02:33:07.365Z,99620.25
2024-01-04T02:35:34.131Z,99613.63
2024-01-04T02:38:00.838Z,99614.28
2024-01-04T02:40:29.330Z,99609.53
2024-01-04T02:42:56.021Z,99606.66
2024-01-04T02:45:22.789Z,99615.78
2024-01-04T02:47:49.540Z,99615.13
2024-01-04T02:50:16.325Z,99603.03
2024-01-04T02:52:43.070Z,99615.22
2024-01-04T02:55:09.757Z,99612.06
2024-01-04T02:57:36.388Z,99600.16
2024-01-04T03:00:03.610Z,99608.81
2024-01-04T03:02:30.344Z,99606.69
2024-01-04T03:04:56.990Z,99601.84
2024-01-04T03:07:23.622Z,99599.72
2024-01-04T03:09:50.384Z,99608.59
2024-01-04T03:12:17.577Z,99602.91
2024-01-04T03:14:44.326Z,99603.47
2024-01-04T03:17:10.991Z,99599.00
2024-01-04T03:19:37.753Z,99608.66
2024-01-04T03:22:04.673Z,99605.88
2024-01-04T03:24:32.765Z,99602.72
2024-01-04T03:26:59.564Z,99603.44
2024-01-04T03:29:26.250Z,99598.59
2024-01-04T03:31:52.861Z,99581.78
2024-01-04T03:34:19.750Z,99585.50
2024-01-04T03:36:46.638Z,99580.94
2024-01-04T03:39:13.570Z,99565.63
2024-01-04T03:41:40.465Z,99558.19
2024-01-04T03:44:07.194Z,99559.84
2024-01-04T03:46:33.819Z,99543.69
2024-01-04T03:49:00.734Z,99553.44
2024-01-04T03:51:27.576Z,99544.06
2024-01-04T03:53:54.410Z,99542.09
2024-01-04T03:56:21.115Z,99540.13
2024-01-04T03:58:47.805Z,99524.72
2024-01-04T04:01:14.560Z,99523.41
2024-01-04T04:03:41.363Z,99518.56
2024-01-04T04:06:09.291Z,99518.28
2024-01-04T04:08:36.532Z,99516.78
2024-01-04T04:11:03.501Z,99511.16
2024-01-04T04:13:31.955Z,99529.72
2024-01-04T04:15:58.640Z,99523.84
2024-01-04T04:18:25.474Z,99521.72
2024-01-04T04:20:53.644Z,99524.75
2024-01-04T04:23:20.326Z,99519.91
2024-01-04T04:25:47.034Z,99509.66
2024-01-04T04:28:14.633Z,99505.66
2024-01-04T04:30:41.343Z,99508.06
2024-01-04T04:33:08.358Z,99514.16
2024-01-04T04:35:44.011Z,99510.53
2024-01-04T04:38:14.545Z,99504.84
2024-01-04T04:40:41.250Z,99508.25
2024-01-04T04:43:07.936Z,99506.94
2024-01-04T04:45:34.637Z,99511.34
2024-01-04T04:48:01.446Z,99496.59
2024-01-04T04:50:28.192Z,99502.31
2024-01-04T04:52:55.423Z,99497.31
2024-01-04T04:55:22.335Z,99491.25
2024-01-04T04:57:49.028Z,99494.78
2024-01-04T05:00:16.193Z,99490.44
2024-01-04T05:02:43.538Z,99499.72
2024-01-04T05:05:10.216Z,99499.91
2024-01-04T05:07:42.367Z,99497.56
2024-01-04T05:10:09.235Z,99486.31
2024-01-04T05:12:35.906Z,99477.44
2024-01-04T05:15:02.904Z,99481.31
2024-01-04T05:17:29.816Z,99470.53
2024-01-04T05:19:56.596Z,99470.06
2024-01-04T05:22:23.398Z,99470.25
2024-01-04T05:24:50.108Z,99467.56
2024-01-04T05:27:16.898Z,99462.19
2024-01-04T05:29:43.593Z,99463.19
2024-01-04T05:32:10.288Z,99462.19
2024-01-04T05:34:38.314Z,99464.69
2024-01-04T05:37:05.011Z,99473.59
2024-01-04T05:39:31.713Z,99468.03
2024-01-04T05:41:58.344Z,99465.16
2024-01-04T05:44:25.057Z,99459.78
2024-01-04T05:46:51.726Z,99458.78
2024-01-04T05:49:18.513Z,99459.44
2024-01-04T05:51:45.257Z,99465.66
2024-01-04T05:54:12.015Z,99454.91
2024-01-04T05:56:39.894Z,99444.97
2024-01-04T05:59:06.543Z,99452.03
2024-01-04T06:01:35.802Z,99442.09
2024-01-04T06:04:02.524Z,99445.44
2024-01-04T06:06:29.280Z,99444.25
2024-01-04T06:08:56.063Z,99439.06
2024-01-04T06:11:22.732Z,99442.59
2024-01-04T06:13:49.519Z,99436.19
2024-01-04T06:16:18.854Z,99435.16
2024-01-04T06:18:45.694Z,99437.66
2024-01-04T06:21:12.586Z,99447.56
2024-01-04T06:23:39.409Z,99443.88
2024-01-04T06:26:06.147Z,99443.88
2024-01-04T06:28:32.788Z,99438.66
2024-01-04T06:31:00.541Z,99442.19
2024-01-04T06:33:27.441Z,99447.56
2024-01-04T06:35:57.693Z,99444.88
2024-01-04T06:38:25.502Z,99438.88
2024-01-04T06:40:54.006Z,99438.22
2024-01-04T06:43:20.705Z,99433.03
2024-01-04T06:45:47.386Z,99428.66
2024-01-04T06:48:14.423Z,99423.09
2024-01-04T06:50:41.308Z,99425.97
2024-01-04T06:53:09.180Z,99418.25
2024-01-04T06:55:35.802Z,99418.44
2024-01-04T06:58:02.504Z,99424.19
2024-01-04T07:00:29.263Z,99418.13
2024-01-04T07:02:56.024Z,99421.84
2024-01-04T07:05:22.996Z,99415.81
2024-01-04T07:07:49.702Z,99399.84
2024-01-04T07:10:16.492Z,99402.72
2024-01-04T07:12:44.436Z,99393.00
2024-01-04T07:15:12.081Z,99391.97
2024-01-04T07:17:39.763Z,99396.34
2024-01-04T07:20:07.543Z,99390.97
2024-01-04T07:22:35.014Z,99387.25
2024-01-04T07:25:02.074Z,99392.44
2024-01-04T07:27:31.821Z,99387.25
2024-01-04T07:29:59.596Z,99394.31
2024-01-04T07:32:26.437Z,99393.28
2024-01-04T07:35:00.661Z,99383.19
2024-01-04T07:37:34.777Z,99376.78
2024-01-04T07:40:01.429Z,99376.44
2024-01-04T07:42:28.118Z,99372.19
2024-01-04T07:45:02.365Z,99375.25
2024-01-04T07:47:33.140Z,99382.69
2024-01-04T07:49:59.864Z,99380.31
2024-01-04T07:52:26.548Z,99378.59
2024-01-04T07:54:53.274Z,99364.47
2024-01-04T07:57:22.041Z,99363.59
2024-01-04T07:59:48.739Z,99360.66
2024-01-04T08:02:16.532Z,99360.56
2024-01-04T08:04:43.215Z,99363.16
2024-01-04T08:07:10.109Z,99349.16
2024-01-04T08:09:39.459Z,99343.09
2024-01-04T08:12:06.792Z,99344.72
2024-01-04T08:14:34.939Z,99333.34
2024-01-04T08:17:01.606Z,99332.53
2024-01-04T08:19:28.599Z,99343.28
2024-01-04T08:21:55.326Z,99333.59
2024-01-04T08:24:22.025Z,99331.28
2024-01-04T08:26:48.917Z,99317.63
2024-01-04T08:29:15.619Z,99319.06
2024-01-04T08:31:42.413Z,99316.31
2024-01-04T08:34:09.294Z,99319.00
2024-01-04T08:36:36.142Z,99307.78
2024-01-04T08:39:04.686Z,99308.31
2024-01-04T08:41:31.378Z,99306.66
2024-01-04T08:43:58.317Z,99318.31
2024-01-04T08:46:25.063Z,99306.09
2024-01-04T08:48:52.030Z,99311.69
2024-01-04T08:51:19.883Z,99316.53
2024-01-04T08:53:46.944Z,99306.53
2024-01-04T08:56:15.361Z,99300.44
2024-01-04T08:58:42.586Z,99304.69
2024-01-04T09:01:09.387Z,99302.81
2024-01-04T09:03:36.420Z,99306.94
2024-01-04T09:06:05.099Z,99300.56
2024-01-04T09:08:32.835Z,99306.22
2024-01-04T09:10:59.764Z,99312.81
2024-01-04T09:13:26.432Z,99316.44
2024-01-04T09:15:53.090Z,99304.84
2024-01-04T09:18:20.944Z,99298.47
2024-01-04T09:20:48.380Z,99311.81
2024-01-04T09:23:15.079Z,99315.41
2024-01-04T09:25:41.761Z,99313.72
2024-01-04T09:28:08.383Z,99303.91
2024-01-04T09:30:35.128Z,99309.75
2024-01-04T09:33:02.684Z,99306.59
2024-01-04T09:35:29.476Z,99299.94
2024-01-04T09:37:56.161Z,99300.78
2024-01-04T09:40:22.981Z,99298.16
2024-01-04T09:42:54.574Z,99294.19
2024-01-04T09:45:23.194Z,99277.59
2024-01-04T09:47:55.146Z,99274.41
2024-01-04T09:50:23.347Z,99285.53
2024-01-04T09:52:56.371Z,99275.34
2024-01-04T09:55:24.967Z,99281.50
2024-01-04T09:57:51.855Z,99277.72
2024-01-04T10:00:19.681Z,99281.63
2024-01-04T10:02:46.586Z,99279.75
2024-01-04T10:05:17.358Z,99277.91
2024-01-04T10:08:21.290Z,99269.59
2024-01-04T10:10:48.328Z,99267.72
2024-01-04T10:13:16.253Z,99268.34
2024-01-04T10:15:44.764Z,99255.66
2024-01-04T10:18:14.473Z,99246.56
2024-01-04T10:20:41.456Z,99234.00
2024-01-04T10:23:08.704Z,99223.06
2024-01-04T10:25:35.349Z,99220.03
2024-01-04T10:28:02.467Z,99216.78
2024-01-04T10:30:30.488Z,99222.81
2024-01-04T10:32:57.559Z,99209.16
2024-01-04T10:35:28.382Z,99204.69
2024-01-04T10:37:58.686Z,99215.66
2024-01-04T10:40:29.807Z,99200.38
2024-01-04T10:42:58.648Z,99208.03
2024-01-04T10:45:28.787Z,99205.28
2024-01-04T10:47:57.020Z,99192.94
2024-01-04T10:50:25.631Z,99192.13
2024-01-04T10:52:59.896Z,99179.19
2024-01-04T10:55:28.794Z,99176.72
2024-01-04T10:57:58.522Z,99183.84
2024-01-04T11:00:25.444Z,99169.91
2024-01-04T11:02:53.034Z,99158.41
2024-01-04T11:05:21.656Z,99151.78
2024-01-04T11:07:49.940Z,99136.66
2024-01-04T11:10:18.009Z,99131.72
2024-01-04T11:12:46.742Z,99124.31
2024-01-04T11:15:15.684Z,99107.91
2024-01-04T11:17:42.481Z,99105.13
2024-01-04T11:20:18.840Z,99105.25
2024-01-04T11:23:33.375Z,99091.91
2024-01-04T11:26:03.097Z,99082.97
2024-01-04T11:28:40.107Z,99081.03
2024-01-04T11:31:08.317Z,99078.78
2024-01-04T11:33:44.658Z,99066.72
2024-01-04T11:36:20.036Z,99058.44
2024-01-04T11:38:48.225Z,99053.63
2024-01-04T11:41:14.948Z,99047.69
2024-01-04T11:43:45.463Z,99047.50
2024-01-04T11:46:24.029Z,99043.53
2024-01-04T11:49:00.585Z,99027.84
2024-01-04T11:51:39.687Z,99033.38
2024-01-04T11:54:08.245Z,99009.38
2024-01-04T11:56:35.195Z,99006.97
2024-01-04T11:59:08.935Z,99002.88
2024-01-04T12:01:43.354Z,99000.16
2024-01-04T12:04:14.585Z,99002.63
2024-01-04T12:06:43.475Z,99000.91
2024-01-04T12:09:12.213Z,98991.84
2024-01-04T12:11:46.844Z,98972.66
2024-01-04T12:14:13.746Z,98970.75
2024-01-04T12:16:41.091Z,98956.25
2024-01-04T12:19:08.908Z,98971.53
2024-01-04T12:21:36.306Z,98950.38
2024-01-04T12:24:04.252Z,98956.53
2024-01-04T12:26:31.668Z,98951.75
2024-01-04T12:29:00.670Z,98951.91
2024-01-04T12:31:27.584Z,98933.25
2024-01-04T12:33:55.515Z,98929.50
2024-01-04T12:36:23.693Z,98926.31
2024-01-04T12:38:55.495Z,98906.13
2024-01-04T12:41:26.687Z,98905.69
2024-01-04T12:43:55.173Z,98888.66
2024-01-04T12:46:22.648Z,98887.66
2024-01-04T12:48:50.292Z,98884.38
2024-01-04T12:51:18.012Z,98892.78
2024-01-04T12:53:49.049Z,98871.72
2024-01-04T12:56:16.958Z,98866.53
2024-01-04T12:58:45.861Z,98871.16
2024-01-04T13:01:12.911Z,98870.91
2024-01-04T13:03:39.790Z,98857.75
2024-01-04T13:06:06.962Z,98857.19
2024-01-04T13:08:33.860Z,98866.44
2024-01-04T13:11:00.875Z,98852.16
2024-01-04T13:13:31.251Z,98847.66
2024-01-04T13:16:00.004Z,98839.88
2024-01-04T13:18:27.074Z,98842.03
2024-01-04T13:20:53.962Z,98818.75
2024-01-04T13:23:20.626Z,98817.81
2024-01-04T13:25:47.251Z,98813.38
2024-01-04T13:28:13.867Z,98808.69
2024-01-04T13:30:40.631Z,98812.63
2024-01-04T13:33:07.945Z,98815.72
2024-01-04T13:35:35.035Z,98804.16
2024-01-04T13:38:02.214Z,98805.38
2024-01-04T13:40:29.681Z,98793.22
2024-01-04T13:42:56.329Z,98803.09
2024-01-04T13:45:23.513Z,98809.16
2024-01-04T13:47:50.880Z,98791.28
2024-01-04T13:50:17.675Z,98788.56
2024-01-04T13:52:44.347Z,98793.41
2024-01-04T13:55:12.367Z,98780.88
2024-01-04T13:57:39.091Z,98788.56
2024-01-04T14:00:09.499Z,98797.56
2024-01-04T14:02:38.287Z,98779.00
2024-01-04T14:05:05.297Z,98770.00
2024-01-04T14:07:32.395Z,98773.31
2024-01-04T14:09:59.102Z,98790.69
2024-01-04T14:12:25.750Z,98772.72
2024-01-04T14:14:52.470Z,98760.44
2024-01-04T14:17:19.179Z,98769.66
2024-01-04T14:19:45.975Z,98763.41
2024-01-04T14:22:13.348Z,98757.84
2024-01-04T14:24:40.144Z,98746.44
2024-01-04T14:27:06.835Z,98746.44
2024-01-04T14:29:35.372Z,98741.47
2024-01-04T14:32:02.077Z,98743.59
2024-01-04T14:34:28.881Z,98747.88
2024-01-04T14:36:55.952Z,98744.56
2024-01-04T14:39:23.196Z,98738.78
2024-01-04T14:41:51.375Z,98729.69
2024-01-04T14:44:18.170Z,98743.19
2024-01-04T14:46:44.820Z,98731.72
2024-01-04T14:49:11.998Z,98734.91
2024-01-04T14:51:38.732Z,98734.34
2024-01-04T14:54:06.007Z,98741.66
2024-01-04T14:56:37.870Z,98746.03
2024-01-04T14:59:09.410Z,98735.41
2024-01-04T15:01:36.302Z,98727.25
2024-01-04T15:04:03.373Z,98719.56
2024-01-04T15:06:30.406Z,98727.13
2024-01-04T15:08:57.234Z,98725.97
2024-01-04T15:11:24.625Z,98722.31
2024-01-04T15:13:52.216Z,98738.16
2024-01-04T15:16:19.454Z,98748.66
2024-01-04T15:18:46.537Z,98753.16
2024-01-04T15:21:14.269Z,98762.00
2024-01-04T15:23:41.384Z,98761.66
2024-01-04T15:26:08.264Z,98753.38
2024-01-04T15:28:35.025Z,98757.03
2024-01-04T15:31:01.783Z,98757.97
2024-01-04T15:33:28.893Z,98759.97
2024-01-04T15:35:58.222Z,98765.88
2024-01-04T15:38:25.914Z,98776.59
2024-01-04T15:40:52.617Z,98769.75
2024-01-04T15:43:21.112Z,98772.13
2024-01-04T15:45:47.778Z,98770.69
2024-01-04T15:48:16.942Z,98757.34
2024-01-04T15:50:44.980Z,98750.75
2024-01-04T15:53:11.673Z,98758.28
2024-01-04T15:55:38.350Z,98771.72
2024-01-04T15:58:05.474Z,98785.53
2024-01-04T16:00:32.423Z,98777.63
2024-01-04T16:03:00.203Z,98777.47
2024-01-04T16:05:27.867Z,98791.50
2024-01-04T16:07:54.468Z,98787.59
2024-01-04T16:10:21.280Z,98784.28
2024-01-04T16:12:48.462Z,98785.81
2024-01-04T16:15:15.400Z,98788.38
2024-01-04T16:17:42.148Z,98788.84
2024-01-04T16:20:15.714Z,98785.53
2024-01-04T16:22:49.339Z,98790.22
2024-01-04T16:25:16.072Z,98784.09
2024-01-04T16:27:43.160Z,98779.59
2024-01-04T16:30:11.451Z,98778.84
2024-01-04T16:32:38.258Z,98786.00
2024-01-04T16:35:05.977Z,98779.84
2024-01-04T16:37:32.759Z,98774.03
2024-01-04T16:39:59.513Z,98774.91
2024-01-04T16:42:26.406Z,98782.06
2024-01-04T16:44:53.453Z,98785.91
2024-01-04T16:47:20.418Z,98781.38
2024-01-04T16:49:47.208Z,98776.66
2024-01-04T16:52:14.115Z,98771.91
2024-01-04T16:54:41.249Z,98772.81
2024-01-04T16:57:08.057Z,98770.38
2024-01-04T16:59:34.713Z,98771.28
2024-01-04T17:02:02.403Z,98770.09
2024-01-04T17:04:29.578Z,98770.16
2024-01-04T17:06:56.421Z,98783.78
2024-01-04T17:09:25.460Z,98790.69
2024-01-04T17:11:53.666Z,98787.81
2024-01-04T17:14:21.169Z,98782.84
2024-01-04T17:16:47.844Z,98785.97
2024-01-04T17:19:14.735Z,98788.31
2024-01-04T17:21:42.134Z,98796.25
2024-01-04T17:24:08.937Z,98785.88
2024-01-04T17:26:35.843Z,98797.13
2024-01-04T17:29:03.268Z,98796.75
2024-01-04T17:31:30.397Z,98804.69
2024-01-04T17:33:57.472Z,98788.50
2024-01-04T17:36:29.007Z,98793.31
2024-01-04T17:39:02.099Z,98797.28
2024-01-04T17:41:28.835Z,98807.72
2024-01-04T17:43:55.475Z,98816.44
2024-01-04T17:46:22.361Z,98815.63
2024-01-04T17:48:49.193Z,98824.16
2024-01-04T17:51:18.740Z,98826.03
2024-01-04T17:53:45.560Z,98817.53
2024-01-04T17:56:12.296Z,98815.25
2024-01-04T17:58:39.003Z,98820.31
2024-01-04T18:01:05.879Z,98808.25
2024-01-04T18:03:33.038Z,98811.19
2024-01-04T18:05:59.882Z,98813.28
2024-01-04T18:08:26.592Z,98812.06
2024-01-04T18:10:53.245Z,98817.06
2024-01-04T18:13:20.296Z,98813.97
2024-01-04T18:15:47.018Z,98806.06
2024-01-04T18:18:13.803Z,98801.09
2024-01-04T18:20:40.555Z,98806.94
2024-01-04T18:23:07.174Z,98797.59
2024-01-04T18:25:35.187Z,98802.38
2024-01-04T18:28:04.080Z,98796.56
2024-01-04T18:30:32.204Z,98805.94
2024-01-04T18:32:59.505Z,98799.94
2024-01-04T18:35:26.232Z,98800.56
2024-01-04T18:37:52.931Z,98785.19
2024-01-04T18:40:19.687Z,98795.59
2024-01-04T18:42:49.126Z,98797.47
2024-01-04T18:45:16.002Z,98799.75
2024-01-04T18:47:42.881Z,98801.84
2024-01-04T18:50:09.924Z,98802.91
2024-01-04T18:52:36.700Z,98809.13
2024-01-04T18:55:03.427Z,98806.63
2024-01-04T18:57:30.287Z,98813.09
2024-01-04T18:59:57.431Z,98813.91
2024-01-04T19:02:24.727Z,98805.81
2024-01-04T19:04:51.598Z,98819.53
2024-01-04T19:07:18.287Z,98807.28
2024-01-04T19:09:44.972Z,98813.50
2024-01-04T19:12:11.713Z,98812.69
2024-01-04T19:14:38.430Z,98811.03
2024-01-04T19:17:05.064Z,98818.28
2024-01-04T19:19:31.803Z,98827.44
2024-01-04T19:21:58.770Z,98821.44
2024-01-04T19:24:25.568Z,98831.00
2024-01-04T19:26:52.373Z,98834.34
2024-01-04T19:29:19.181Z,98829.34
2024-01-04T19:31:46.853Z,98830.81
2024-01-04T19:34:13.798Z,98834.75
2024-01-04T19:36:43.766Z,98827.34
2024-01-04T19:39:10.795Z,98817.78
2024-01-04T19:41:37.517Z,98814.66
2024-01-04T19:44:04.446Z,98809.06
2024-01-04T19:46:31.187Z,98813.84
2024-01-04T19:48:57.969Z,98809.91
2024-01-04T19:51:24.793Z,98793.09
2024-01-04T19:53:52.482Z,98805.16
2024-01-04T19:56:19.350Z,98805.34
2024-01-04T19:58:47.488Z,98801.22
2024-01-04T20:01:14.348Z,98802.03
2024-01-04T20:03:41.334Z,98792.06
2024-01-04T20:06:08.423Z,98800.38
2024-01-04T20:08:35.807Z,98786.25
2024-01-04T20:11:02.777Z,98799.56
2024-01-04T20:13:29.574Z,98796.63
2024-01-04T20:15:56.300Z,98803.69
2024-01-04T20:18:25.372Z,98806.41
2024-01-04T20:20:54.069Z,98796.03
2024-01-04T20:23:21.640Z,98795.41
2024-01-04T20:25:48.430Z,98787.91
2024-01-04T20:28:15.162Z,98783.97
2024-01-04T20:30:41.944Z,98789.56
2024-01-04T20:33:09.086Z,98789.97
2024-01-04T20:35:35.908Z,98794.13
2024-01-04T20:38:03.876Z,98799.13
2024-01-04T20:40:30.855Z,98801.00
2024-01-04T20:42:57.912Z,98796.00
2024-01-04T20:45:24.722Z,98785.63
2024-01-04T20:47:51.678Z,98785.00
2024-01-04T20:50:18.569Z,98786.06
2024-01-04T20:52:45.334Z,98784.38
2024-01-04T20:55:12.033Z,98785.44
2024-01-04T20:57:38.863Z,98780.44
2024-01-04T21:00:07.815Z,98779.81
2024-01-04T21:02:34.699Z,98777.34
2024-01-04T21:05:02.110Z,98766.97
2024-01-04T21:07:29.432Z,98768.84
2024-01-04T21:09:56.197Z,98761.78
2024-01-04T21:12:31.174Z,98746.00
2024-01-04T21:14:57.908Z,98755.13
2024-01-04T21:17:24.594Z,98745.38
2024-01-04T21:19:51.777Z,98746.44
2024-01-04T21:22:18.530Z,98744.78
2024-01-04T21:24:45.189Z,98750.16
2024-01-04T21:27:12.490Z,98743.94
2024-01-04T21:29:39.250Z,98753.06
2024-01-04T21:32:06.237Z,98752.22
2024-01-04T21:34:33.089Z,98751.41
2024-01-04T21:36:59.898Z,98746.00
2024-01-04T21:39:27.112Z,98745.19
2024-01-04T21:41:53.913Z,98742.94
2024-01-04T21:44:20.677Z,98742.31
2024-01-04T21:46:51.125Z,98744.38
2024-01-04T21:49:20.590Z,98735.06
2024-01-04T21:51:47.583Z,98721.38
2024-01-04T21:54:14.312Z,98711.63
2024-01-04T21:56:41.393Z,98717.41
2024-01-04T21:59:08.123Z,98718.66
2024-01-04T22:01:37.207Z,98708.72
2024-01-04T22:04:05.691Z,98703.31
2024-01-04T22:06:32.979Z,98701.66
2024-01-04T22:09:00.116Z,98704.78
2024-01-04T22:11:26.882Z,98702.50
2024-01-04T22:13:56.240Z,98706.22
2024-01-04T22:16:37.073Z,98703.94
2024-01-04T22:19:04.586Z,98705.59
2024-01-04T22:21:32.202Z,98692.13
2024-01-04T22:23:59.532Z,98686.72
2024-01-04T22:26:26.503Z,98677.59
2024-01-04T22:28:53.468Z,98686.72
2024-01-04T22:31:20.143Z,98688.38
2024-01-04T22:33:46.969Z,98684.03
2024-01-04T22:36:14.071Z,98678.03
2024-01-04T22:38:40.917Z,98665.59
2024-01-04T22:41:07.831Z,98662.25
2024-01-04T22:43:34.472Z,98662.47
2024-01-04T22:46:02.007Z,98660.59
2024-01-04T22:48:29.099Z,98651.06
2024-01-04T22:50:56.091Z,98650.25
2024-01-04T22:53:22.953Z,98647.34
2024-01-04T22:55:50.665Z,98644.84
2024-01-04T22:58:17.355Z,98644.22
2024-01-04T23:00:44.129Z,98647.75
2024-01-04T23:03:10.987Z,98644.22
2024-01-04T23:05:37.772Z,98643.59
2024-01-04T23:08:05.459Z,98641.94
2024-01-04T23:10:32.159Z,98640.91
2024-01-04T23:12:58.806Z,98635.72
2024-01-04T23:15:25.594Z,98634.91
2024-01-04T23:17:52.450Z,98647.34
2024-01-04T23:20:19.192Z,98644.44
2024-01-04T23:22:46.110Z,98629.09
2024-01-04T23:25:12.763Z,98625.38
2024-01-04T23:27:39.575Z,98629.72
2024-01-04T23:30:07.002Z,98623.72
2024-01-04T23:32:33.988Z,98621.00
2024-01-04T23:35:00.895Z,98612.72
2024-01-04T23:37:27.636Z,98619.97
2024-01-04T23:39:54.355Z,98612.94
2024-01-04T23:42:21.061Z,98629.09
2024-01-04T23:44:47.783Z,98627.44
2024-01-04T23:47:14.556Z,98625.78
2024-01-04T23:49:41.424Z,98627.44
2024-01-04T23:52:08.216Z,98619.34
2024-01-04T23:54:35.053Z,98623.72
2024-01-04T23:57:01.766Z,98610.44
2024-01-04T23:59:28.441Z,98604.44
